createdAt,value
2019-02-15T00:00:07.215Z,3.80
2019-02-15T00:02:35.663Z,3.60
2019-02-15T00:05:04.917Z,3.70
2019-02-15T00:07:33.345Z,3.80
2019-02-15T00:10:01.798Z,3.70
2019-02-15T00:12:30.231Z,3.50
2019-02-15T00:14:58.677Z,3.50
2019-02-15T00:17:31.169Z,3.70
2019-02-15T00:20:01.268Z,3.80
2019-02-15T00:22:29.689Z,3.70
2019-02-15T00:24:58.217Z,3.70
2019-02-15T00:27:26.709Z,3.80
2019-02-15T00:29:55.166Z,3.70
2019-02-15T00:32:23.614Z,3.60
2019-02-15T00:34:52.062Z,3.50
2019-02-15T00:37:20.670Z,3.60
2019-02-15T00:39:49.113Z,3.50
2019-02-15T00:42:17.625Z,3.40
2019-02-15T00:44:46.106Z,3.50
2019-02-15T00:47:19.302Z,3.40
2019-02-15T00:49:49.538Z,3.40
2019-02-15T00:52:25.296Z,3.40
2019-02-15T00:54:55.390Z,3.40
2019-02-15T00:57:25.484Z,3.30
2019-02-15T00:59:55.554Z,3.20
2019-02-15T01:02:25.641Z,3.20
2019-02-15T01:05:04.550Z,3.20
2019-02-15T01:07:40.512Z,3.30
2019-02-15T01:10:28.279Z,3.20
2019-02-15T01:12:58.369Z,3.10
2019-02-15T01:15:26.802Z,3.00
2019-02-15T01:17:55.239Z,3.10
2019-02-15T01:20:23.697Z,2.90
2019-02-15T01:22:52.141Z,3.00
2019-02-15T01:25:20.723Z,3.00
2019-02-15T01:27:59.863Z,3.00
2019-02-15T01:30:46.071Z,2.90
2019-02-15T01:33:19.199Z,2.90
2019-02-15T01:35:58.257Z,2.90
2019-02-15T01:38:28.419Z,2.90
2019-02-15T01:40:58.507Z,2.70
2019-02-15T01:43:40.110Z,2.60
2019-02-15T01:46:18.472Z,2.90
2019-02-15T01:48:46.935Z,2.60
2019-02-15T01:51:15.439Z,2.60
2019-02-15T01:53:43.873Z,2.60
2019-02-15T01:56:12.321Z,2.60
2019-02-15T01:58:40.777Z,2.60
2019-02-15T02:01:09.365Z,2.80
2019-02-15T02:03:37.801Z,2.80
2019-02-15T02:06:06.263Z,2.60
2019-02-15T02:08:34.703Z,2.50
2019-02-15T02:11:03.153Z,2.50
2019-02-15T02:13:31.669Z,2.60
2019-02-15T02:16:00.198Z,2.60
2019-02-15T02:18:28.654Z,2.60
2019-02-15T02:20:57.794Z,2.50
2019-02-15T02:23:26.236Z,2.50
2019-02-15T02:25:54.764Z,2.50
2019-02-15T02:28:23.211Z,2.50
2019-02-15T02:30:51.661Z,2.50
2019-02-15T02:33:20.114Z,2.40
2019-02-15T02:35:48.647Z,2.40
2019-02-15T02:38:17.063Z,2.30
2019-02-15T02:40:45.509Z,2.40
2019-02-15T02:43:13.968Z,2.30
2019-02-15T02:45:42.420Z,2.30
2019-02-15T02:48:10.867Z,2.40
2019-02-15T02:50:39.307Z,2.30
2019-02-15T02:53:07.775Z,2.20
2019-02-15T02:55:36.207Z,2.30
2019-02-15T02:58:04.722Z,2.10
2019-02-15T03:00:33.933Z,2.30
2019-02-15T03:03:02.506Z,2.30
2019-02-15T03:05:30.937Z,2.20
2019-02-15T03:07:59.406Z,2.30
2019-02-15T03:10:27.842Z,2.20
2019-02-15T03:12:56.301Z,2.20
2019-02-15T03:15:24.739Z,2.20
2019-02-15T03:17:53.207Z,2.10
2019-02-15T03:20:30.871Z,2.20
2019-02-15T03:22:51.816Z,2.20
2019-02-15T03:25:20.247Z,2.20
2019-02-15T03:27:48.702Z,2.10
2019-02-15T03:30:17.152Z,2.10
2019-02-15T03:32:45.667Z,2.20
2019-02-15T03:35:14.104Z,2.20
2019-02-15T03:38:02.264Z,2.10
2019-02-15T03:40:32.416Z,2.10
2019-02-15T03:43:00.853Z,2.00
2019-02-15T03:45:29.291Z,1.90
2019-02-15T03:47:57.723Z,2.00
2019-02-15T03:50:26.181Z,2.00
2019-02-15T03:52:54.611Z,1.90
2019-02-15T03:55:23.135Z,2.00
2019-02-15T03:57:51.637Z,1.90
2019-02-15T04:00:20.079Z,2.00
2019-02-15T04:02:48.509Z,2.00
2019-02-15T04:05:16.965Z,2.10
2019-02-15T04:07:45.409Z,2.00
2019-02-15T04:10:13.930Z,2.00
2019-02-15T04:12:42.427Z,2.00
2019-02-15T04:15:10.887Z,2.00
2019-02-15T04:17:39.327Z,2.00
2019-02-15T04:20:09.905Z,2.00
2019-02-15T04:22:38.337Z,2.00
2019-02-15T04:25:07.037Z,2.10
2019-02-15T04:27:35.469Z,1.90
2019-02-15T04:30:04.770Z,1.90
2019-02-15T04:32:33.197Z,1.90
2019-02-15T04:35:02.022Z,1.90
2019-02-15T04:37:30.449Z,1.80
2019-02-15T04:39:58.970Z,1.80
2019-02-15T04:42:27.405Z,1.80
2019-02-15T04:44:55.861Z,1.70
2019-02-15T04:47:24.300Z,1.80
2019-02-15T04:49:52.768Z,1.80
2019-02-15T04:52:21.200Z,1.80
2019-02-15T04:54:49.646Z,1.70
2019-02-15T04:57:18.078Z,1.80
2019-02-15T04:59:46.518Z,1.70
2019-02-15T05:02:14.959Z,1.80
2019-02-15T05:04:43.408Z,1.70
2019-02-15T05:07:11.838Z,1.70
2019-02-15T05:09:40.291Z,1.80
2019-02-15T05:12:08.726Z,1.70
2019-02-15T05:14:37.191Z,1.90
2019-02-15T05:17:05.693Z,1.60
2019-02-15T05:19:34.202Z,1.70
2019-02-15T05:22:02.650Z,1.60
2019-02-15T05:24:31.174Z,1.60
2019-02-15T05:26:59.709Z,1.80
2019-02-15T05:29:28.147Z,1.80
2019-02-15T05:31:56.595Z,1.70
2019-02-15T05:34:25.021Z,1.90
2019-02-15T05:36:54.145Z,1.60
2019-02-15T05:39:22.577Z,1.60
2019-02-15T05:41:51.026Z,1.40
2019-02-15T05:44:19.462Z,1.40
2019-02-15T05:46:47.919Z,1.50
2019-02-15T05:49:16.449Z,1.70
2019-02-15T05:51:47.288Z,1.50
2019-02-15T05:54:15.078Z,1.70
2019-02-15T05:56:43.538Z,1.60
2019-02-15T05:59:11.964Z,1.70
2019-02-15T06:01:40.461Z,1.40
2019-02-15T06:04:08.931Z,1.50
2019-02-15T06:06:37.390Z,1.50
2019-02-15T06:09:06.509Z,1.50
2019-02-15T06:11:35.046Z,1.50
2019-02-15T06:14:03.465Z,1.50
2019-02-15T06:16:31.974Z,1.60
2019-02-15T06:19:00.558Z,1.50
2019-02-15T06:21:29.058Z,1.50
2019-02-15T06:23:57.529Z,1.50
2019-02-15T06:26:26.694Z,1.40
2019-02-15T06:28:55.155Z,1.40
2019-02-15T06:31:23.587Z,1.60
2019-02-15T06:33:52.054Z,1.50
2019-02-15T06:36:20.482Z,1.60
2019-02-15T06:38:49.131Z,1.90
2019-02-15T06:41:17.570Z,2.20
2019-02-15T06:43:46.028Z,2.50
2019-02-15T06:46:14.458Z,2.80
2019-02-15T06:48:42.916Z,3.20
2019-02-15T06:51:11.354Z,3.30
2019-02-15T06:53:39.804Z,3.40
2019-02-15T06:56:08.517Z,3.60
2019-02-15T06:58:45.491Z,4.00
2019-02-15T07:01:16.021Z,4.40
2019-02-15T07:03:46.104Z,4.70
2019-02-15T07:06:14.535Z,4.50
2019-02-15T07:08:42.986Z,4.60
2019-02-15T07:11:11.410Z,4.80
2019-02-15T07:13:39.861Z,5.60
2019-02-15T07:16:08.459Z,5.10
2019-02-15T07:18:36.918Z,5.50
2019-02-15T07:21:05.351Z,6.10
2019-02-15T07:23:33.790Z,6.40
2019-02-15T07:26:02.244Z,6.60
2019-02-15T07:28:30.678Z,6.40
2019-02-15T07:30:59.126Z,6.80
2019-02-15T07:33:27.558Z,6.60
2019-02-15T07:35:56.067Z,6.80
2019-02-15T07:38:24.588Z,7.00
2019-02-15T07:40:53.040Z,7.20
2019-02-15T07:43:21.483Z,7.10
2019-02-15T07:45:49.990Z,8.10
2019-02-15T07:48:18.449Z,8.20
2019-02-15T07:50:46.903Z,8.30
2019-02-15T07:53:15.332Z,8.40
2019-02-15T07:55:43.768Z,9.20
2019-02-15T07:58:12.205Z,9.20
2019-02-15T08:00:40.637Z,9.50
2019-02-15T08:03:09.262Z,9.10
2019-02-15T08:05:37.711Z,9.50
2019-02-15T08:08:06.144Z,9.60
2019-02-15T08:10:34.587Z,9.20
2019-02-15T08:13:03.023Z,9.00
2019-02-15T08:15:36.127Z,9.40
2019-02-15T08:18:01.630Z,9.40
2019-02-15T08:20:30.063Z,9.60
2019-02-15T08:22:58.486Z,9.80
2019-02-15T08:25:26.941Z,10.20
2019-02-15T08:27:55.392Z,11.00
2019-02-15T08:30:23.914Z,11.10
2019-02-15T08:32:52.359Z,11.10
2019-02-15T08:35:20.905Z,10.80
2019-02-15T08:37:49.512Z,11.10
2019-02-15T08:40:19.146Z,11.40
2019-02-15T08:42:47.604Z,10.50
2019-02-15T08:45:18.230Z,10.50
2019-02-15T08:47:46.754Z,11.80
2019-02-15T08:50:15.190Z,12.30
2019-02-15T08:52:43.922Z,11.30
2019-02-15T08:55:12.725Z,11.20
2019-02-15T08:57:44.392Z,11.10
2019-02-15T09:00:15.448Z,11.80
2019-02-15T09:02:44.472Z,11.70
2019-02-15T09:05:13.134Z,12.10
2019-02-15T09:07:41.594Z,13.10
2019-02-15T09:10:12.426Z,13.00
2019-02-15T09:12:41.504Z,13.20
2019-02-15T09:15:13.014Z,14.00
2019-02-15T09:17:47.761Z,13.70
2019-02-15T09:20:16.202Z,12.70
2019-02-15T09:22:47.050Z,12.40
2019-02-15T09:25:17.010Z,13.80
2019-02-15T09:27:47.178Z,14.70
2019-02-15T09:30:15.750Z,15.70
2019-02-15T09:32:44.218Z,14.90
2019-02-15T09:35:12.718Z,14.40
2019-02-15T09:37:41.167Z,15.10
2019-02-15T09:40:10.352Z,15.70
2019-02-15T09:42:38.807Z,17.50
2019-02-15T09:45:11.854Z,18.60
2019-02-15T09:47:40.403Z,18.90
2019-02-15T09:50:12.142Z,19.50
2019-02-15T09:52:40.530Z,19.70
2019-02-15T09:55:09.044Z,16.70
2019-02-15T09:57:37.493Z,17.00
2019-02-15T10:00:08.307Z,15.90
2019-02-15T10:02:36.765Z,15.60
2019-02-15T10:05:06.742Z,15.40
2019-02-15T10:07:35.211Z,15.60
2019-02-15T10:10:04.016Z,15.80
2019-02-15T10:12:32.486Z,17.90
2019-02-15T10:15:00.935Z,19.50
2019-02-15T10:17:29.396Z,19.20
2019-02-15T10:19:57.965Z,17.70
2019-02-15T10:22:26.645Z,16.60
2019-02-15T10:24:55.129Z,16.70
2019-02-15T10:27:23.597Z,18.90
2019-02-15T10:29:52.037Z,18.10
2019-02-15T10:32:20.469Z,17.60
2019-02-15T10:34:48.915Z,17.20
2019-02-15T10:37:17.361Z,16.00
2019-02-15T10:39:45.809Z,18.90
2019-02-15T10:42:14.314Z,16.40
2019-02-15T10:44:42.773Z,16.80
2019-02-15T10:47:14.207Z,16.90
2019-02-15T10:49:41.553Z,17.50
2019-02-15T10:52:10.067Z,20.50
2019-02-15T10:54:38.516Z,19.80
2019-02-15T10:57:07.035Z,18.50
2019-02-15T10:59:35.576Z,17.00
2019-02-15T11:02:04.059Z,18.80
2019-02-15T11:04:32.646Z,19.60
2019-02-15T11:07:01.085Z,19.10
2019-02-15T11:09:29.556Z,20.70
2019-02-15T11:11:57.998Z,18.80
2019-02-15T11:14:26.447Z,20.20
2019-02-15T11:16:54.881Z,19.10
2019-02-15T11:19:23.562Z,18.90
2019-02-15T11:21:52.002Z,18.90
2019-02-15T11:24:20.706Z,19.20
2019-02-15T11:26:49.230Z,18.00
2019-02-15T11:29:17.668Z,18.30
2019-02-15T11:31:46.175Z,19.90
2019-02-15T11:34:14.764Z,20.30
2019-02-15T11:36:43.535Z,21.20
2019-02-15T11:39:12.050Z,20.60
2019-02-15T11:41:40.545Z,19.90
2019-02-15T11:44:09.057Z,18.90
2019-02-15T11:46:37.568Z,19.50
2019-02-15T11:49:06.058Z,19.90
2019-02-15T11:51:34.560Z,18.90
2019-02-15T11:54:03.270Z,19.20
2019-02-15T11:56:31.871Z,20.10
2019-02-15T11:59:00.313Z,19.40
2019-02-15T12:01:28.762Z,18.50
2019-02-15T12:03:57.197Z,20.00
2019-02-15T12:06:25.644Z,21.60
2019-02-15T12:08:54.091Z,21.60
2019-02-15T12:11:22.541Z,19.40
2019-02-15T12:13:50.969Z,19.50
2019-02-15T12:16:19.431Z,22.00
2019-02-15T12:18:48.029Z,20.40
2019-02-15T12:21:16.507Z,20.60
2019-02-15T12:23:45.007Z,21.00
2019-02-15T12:26:13.503Z,20.80
2019-02-15T12:28:41.959Z,21.60
2019-02-15T12:31:10.428Z,19.70
2019-02-15T12:33:38.858Z,20.70
2019-02-15T12:36:07.511Z,20.80
2019-02-15T12:38:36.002Z,20.90
2019-02-15T12:41:04.466Z,20.10
2019-02-15T12:43:32.925Z,20.20
2019-02-15T12:46:01.494Z,20.10
2019-02-15T12:48:30.101Z,21.00
2019-02-15T12:50:58.622Z,19.50
2019-02-15T12:53:27.047Z,19.80
2019-02-15T12:55:56.234Z,19.20
2019-02-15T12:58:24.679Z,20.90
2019-02-15T13:00:53.230Z,20.50
2019-02-15T13:03:21.749Z,21.40
2019-02-15T13:05:50.205Z,21.80
2019-02-15T13:08:18.713Z,21.90
2019-02-15T13:10:47.323Z,21.50
2019-02-15T13:13:15.763Z,21.40
2019-02-15T13:15:45.102Z,19.50
2019-02-15T13:18:13.666Z,20.40
2019-02-15T13:20:42.504Z,20.70
2019-02-15T13:23:10.963Z,19.50
2019-02-15T13:25:39.418Z,18.70
2019-02-15T13:28:07.875Z,19.60
2019-02-15T13:30:36.584Z,19.80
2019-02-15T13:33:05.114Z,19.50
2019-02-15T13:35:33.538Z,19.20
2019-02-15T13:38:01.988Z,19.80
2019-02-15T13:40:30.422Z,19.00
2019-02-15T13:42:59.153Z,18.60
2019-02-15T13:45:29.467Z,18.50
2019-02-15T13:47:57.863Z,18.40
2019-02-15T13:50:26.299Z,18.30
2019-02-15T13:52:54.751Z,18.60
2019-02-15T13:55:23.200Z,18.80
2019-02-15T13:57:52.005Z,19.10
2019-02-15T14:00:20.472Z,18.30
2019-02-15T14:02:48.916Z,18.30
2019-02-15T14:05:17.370Z,18.80
2019-02-15T14:07:45.832Z,18.80
2019-02-15T14:10:15.021Z,18.90
2019-02-15T14:12:43.485Z,18.30
2019-02-15T14:15:12.568Z,18.40
2019-02-15T14:17:44.940Z,17.70
2019-02-15T14:20:14.237Z,17.70
2019-02-15T14:22:42.699Z,17.50
2019-02-15T14:25:12.292Z,18.00
2019-02-15T14:27:40.824Z,17.10
2019-02-15T14:30:16.232Z,16.60
2019-02-15T14:32:44.692Z,16.40
2019-02-15T14:35:14.167Z,16.00
2019-02-15T14:37:42.700Z,15.70
2019-02-15T14:40:12.189Z,15.60
2019-02-15T14:42:40.693Z,15.30
2019-02-15T14:45:12.786Z,15.50
2019-02-15T14:47:41.250Z,15.00
2019-02-15T14:50:10.734Z,15.20
2019-02-15T14:52:39.254Z,15.00
2019-02-15T14:55:09.137Z,15.10
2019-02-15T14:57:37.678Z,15.20
2019-02-15T15:00:11.854Z,14.90
2019-02-15T15:02:40.290Z,15.00
2019-02-15T15:05:10.091Z,15.00
2019-02-15T15:07:38.522Z,15.00
2019-02-15T15:10:08.820Z,15.10
2019-02-15T15:12:37.259Z,15.20
2019-02-15T15:15:08.784Z,15.30
2019-02-15T15:17:37.226Z,15.30
2019-02-15T15:20:08.620Z,15.20
2019-02-15T15:22:37.071Z,14.90
2019-02-15T15:25:08.100Z,14.80
2019-02-15T15:27:36.562Z,15.00
2019-02-15T15:30:07.150Z,14.90
2019-02-15T15:32:35.623Z,14.80
2019-02-15T15:35:04.700Z,14.60
2019-02-15T15:37:33.149Z,14.50
2019-02-15T15:40:01.602Z,14.40
2019-02-15T15:42:30.119Z,14.60
2019-02-15T15:44:58.603Z,14.40
2019-02-15T15:47:27.054Z,14.20
2019-02-15T15:49:55.507Z,14.30
2019-02-15T15:52:24.010Z,14.40
2019-02-15T15:54:52.498Z,14.30
2019-02-15T15:57:20.924Z,14.30
2019-02-15T15:59:49.377Z,14.30
2019-02-15T16:02:18.606Z,14.20
2019-02-15T16:04:47.153Z,14.10
2019-02-15T16:07:15.604Z,14.20
2019-02-15T16:09:44.189Z,14.00
2019-02-15T16:12:12.692Z,13.70
2019-02-15T16:14:41.176Z,13.50
2019-02-15T16:17:09.699Z,13.30
2019-02-15T16:19:40.547Z,13.30
2019-02-15T16:22:08.494Z,13.20
2019-02-15T16:24:36.956Z,13.10
2019-02-15T16:27:05.407Z,13.10
2019-02-15T16:29:33.872Z,13.00
2019-02-15T16:32:02.314Z,12.90
2019-02-15T16:34:30.975Z,12.90
2019-02-15T16:36:59.430Z,12.80
2019-02-15T16:39:27.943Z,12.70
2019-02-15T16:41:56.438Z,12.80
2019-02-15T16:44:24.925Z,12.80
2019-02-15T16:46:53.461Z,12.70
2019-02-15T16:49:21.904Z,12.70
2019-02-15T16:51:50.372Z,12.70
2019-02-15T16:54:18.823Z,12.70
2019-02-15T16:56:47.282Z,12.50
2019-02-15T16:59:15.725Z,12.40
2019-02-15T17:01:44.346Z,12.30
2019-02-15T17:04:12.811Z,12.20
2019-02-15T17:06:41.365Z,12.10
2019-02-15T17:09:16.518Z,12.10
2019-02-15T17:11:45.044Z,12.10
2019-02-15T17:14:14.072Z,12.00
2019-02-15T17:16:42.598Z,11.90
2019-02-15T17:19:11.122Z,11.80
2019-02-15T17:21:39.653Z,11.70
2019-02-15T17:24:08.167Z,11.70
2019-02-15T17:26:36.736Z,11.60
2019-02-15T17:29:05.344Z,11.60
2019-02-15T17:31:33.803Z,11.50
2019-02-15T17:34:02.246Z,11.50
2019-02-15T17:36:30.759Z,11.40
2019-02-15T17:38:59.336Z,11.40
2019-02-15T17:41:27.846Z,11.40
2019-02-15T17:43:56.377Z,11.40
2019-02-15T17:46:24.840Z,11.30
2019-02-15T17:49:00.489Z,11.40
2019-02-15T17:51:23.531Z,11.30
2019-02-15T17:53:51.975Z,11.30
2019-02-15T17:56:20.522Z,11.20
2019-02-15T17:58:49.143Z,11.20
2019-02-15T18:01:17.757Z,11.10
2019-02-15T18:03:46.231Z,11.10
2019-02-15T18:06:15.082Z,11.10
2019-02-15T18:08:43.555Z,11.10
2019-02-15T18:11:11.996Z,11.00
2019-02-15T18:13:40.497Z,11.00
2019-02-15T18:16:08.947Z,11.00
2019-02-15T18:18:37.399Z,11.00
2019-02-15T18:21:05.842Z,10.90
2019-02-15T18:23:34.291Z,10.80
2019-02-15T18:26:02.760Z,10.70
2019-02-15T18:28:31.224Z,10.60
2019-02-15T18:30:59.682Z,10.60
2019-02-15T18:33:28.152Z,10.60
2019-02-15T18:35:56.604Z,10.60
2019-02-15T18:38:25.063Z,10.50
2019-02-15T18:40:53.518Z,10.40
2019-02-15T18:43:21.983Z,10.50
2019-02-15T18:45:50.426Z,10.40
2019-02-15T18:48:19.419Z,10.40
2019-02-15T18:50:48.140Z,10.30
2019-02-15T18:53:16.633Z,10.20
2019-02-15T18:55:45.105Z,10.20
2019-02-15T18:58:13.598Z,10.30
2019-02-15T19:00:42.078Z,10.10
2019-02-15T19:03:10.617Z,10.10
2019-02-15T19:05:39.063Z,10.10
2019-02-15T19:08:07.552Z,10.00
2019-02-15T19:10:35.998Z,9.80
2019-02-15T19:13:04.457Z,9.80
2019-02-15T19:15:32.913Z,9.70
2019-02-15T19:18:01.410Z,9.80
2019-02-15T19:20:30.572Z,10.00
2019-02-15T19:22:59.148Z,9.90
2019-02-15T19:25:27.742Z,9.80
2019-02-15T19:27:56.262Z,9.60
2019-02-15T19:30:27.887Z,9.60
2019-02-15T19:32:56.397Z,9.50
2019-02-15T19:35:24.887Z,9.50
2019-02-15T19:37:53.379Z,9.50
2019-02-15T19:40:22.038Z,9.40
2019-02-15T19:42:53.502Z,9.30
2019-02-15T19:45:22.277Z,9.20
2019-02-15T19:47:50.856Z,9.20
2019-02-15T19:50:19.416Z,9.10
2019-02-15T19:52:48.788Z,9.10
2019-02-15T19:55:17.337Z,9.00
2019-02-15T19:57:45.820Z,8.90
2019-02-15T20:00:18.935Z,8.80
2019-02-15T20:02:47.717Z,8.80
2019-02-15T20:05:16.335Z,8.80
2019-02-15T20:07:44.859Z,8.70
2019-02-15T20:10:23.737Z,8.60
2019-02-15T20:12:52.374Z,8.50
2019-02-15T20:15:20.946Z,8.50
2019-02-15T20:17:49.528Z,8.40
2019-02-15T20:20:18.205Z,8.30
2019-02-15T20:22:46.880Z,8.30
2019-02-15T20:25:15.335Z,8.30
2019-02-15T20:27:43.881Z,8.20
2019-02-15T20:30:15.311Z,8.10
2019-02-15T20:32:43.835Z,8.00
2019-02-15T20:35:13.638Z,7.80
2019-02-15T20:37:42.280Z,7.70
2019-02-15T20:40:12.074Z,7.70
2019-02-15T20:42:40.517Z,7.50
2019-02-15T20:45:18.177Z,7.50
2019-02-15T20:47:46.619Z,7.50
2019-02-15T20:50:15.427Z,7.50
2019-02-15T20:52:43.870Z,7.60
2019-02-15T20:55:14.481Z,7.40
2019-02-15T20:57:43.002Z,7.40
2019-02-15T21:00:26.388Z,7.30
2019-02-15T21:02:54.835Z,7.40
2019-02-15T21:05:23.298Z,7.30
2019-02-15T21:07:51.751Z,7.20
2019-02-15T21:10:20.277Z,7.30
2019-02-15T21:12:48.758Z,7.30
2019-02-15T21:15:17.246Z,7.50
2019-02-15T21:17:45.715Z,7.30
2019-02-15T21:20:15.079Z,7.30
2019-02-15T21:22:43.535Z,7.30
2019-02-15T21:25:16.303Z,7.40
2019-02-15T21:27:44.767Z,7.20
2019-02-15T21:30:15.048Z,7.20
2019-02-15T21:32:43.589Z,7.40
2019-02-15T21:35:12.101Z,7.20
2019-02-15T21:37:40.635Z,7.20
2019-02-15T21:40:14.607Z,7.20
2019-02-15T21:42:43.128Z,7.20
2019-02-15T21:45:11.917Z,7.10
2019-02-15T21:47:40.429Z,7.20
2019-02-15T21:50:16.726Z,7.50
2019-02-15T21:52:44.242Z,7.40
2019-02-15T21:55:12.667Z,7.50
2019-02-15T21:57:41.304Z,7.20
2019-02-15T22:00:15.155Z,7.30
2019-02-15T22:02:43.754Z,7.40
2019-02-15T22:05:12.397Z,7.50
2019-02-15T22:07:40.879Z,7.40
2019-02-15T22:10:10.089Z,7.00
2019-02-15T22:12:38.615Z,7.20
2019-02-15T22:15:12.644Z,7.10
2019-02-15T22:17:41.241Z,7.10
2019-02-15T22:20:25.936Z,7.10
2019-02-15T22:22:46.852Z,7.10
2019-02-15T22:25:15.297Z,6.90
2019-02-15T22:27:43.769Z,7.10
2019-02-15T22:30:16.085Z,7.10
2019-02-15T22:32:44.540Z,7.00
2019-02-15T22:35:13.045Z,7.10
2019-02-15T22:37:41.499Z,7.00
2019-02-15T22:40:27.191Z,6.80
2019-02-15T22:42:56.284Z,6.70
2019-02-15T22:45:24.732Z,6.70
2019-02-15T22:47:53.199Z,6.80
2019-02-15T22:50:21.635Z,6.70
2019-02-15T22:52:50.097Z,6.60
2019-02-15T22:55:18.534Z,6.40
2019-02-15T22:57:46.978Z,6.40
2019-02-15T23:00:21.544Z,6.30
2019-02-15T23:02:50.205Z,6.40
2019-02-15T23:05:18.666Z,6.30
2019-02-15T23:07:47.110Z,6.20
2019-02-15T23:10:15.566Z,6.20
2019-02-15T23:12:44.062Z,6.10
2019-02-15T23:15:12.586Z,6.10
2019-02-15T23:17:41.029Z,6.20
2019-02-15T23:20:09.626Z,6.30
2019-02-15T23:22:38.060Z,6.40
2019-02-15T23:25:07.648Z,6.20
2019-02-15T23:27:36.088Z,6.10
2019-02-15T23:30:06.376Z,6.20
2019-02-15T23:32:34.849Z,6.10
2019-02-15T23:35:03.694Z,6.20
2019-02-15T23:37:32.136Z,6.10
2019-02-15T23:40:00.582Z,6.30
2019-02-15T23:42:29.022Z,6.10
2019-02-15T23:44:57.468Z,6.20
2019-02-15T23:47:25.904Z,6.20
2019-02-15T23:49:54.361Z,6.20
2019-02-15T23:52:22.781Z,6.30
2019-02-15T23:54:51.228Z,6.20
2019-02-15T23:57:19.658Z,6.20
2019-02-15T23:59:48.114Z,6.20
